AIC191 VABB-LIRF
Flight info
| Callsign | AIC191 |
|---|---|
| Flight time | N/A |
| Altitude | 34000 |
| Route | RAXET2A SAKUN V1 BIMOT V2 SUGID N571 PARAR M628 TULBU G652 TOKRA DCT AMBIT L425 WDR/N0496F360 L425 BOSUT B544 JDW M686 GIBAL L300 LXR P751 TAKRI N710 KIVIL L613 MMA/N0484F380 P751 METRU UL81 LORNO DCT KOGEB DCT POLIT DCT LAT |
| Aircraft | B77W/H-SDE1E2E3FGHIJ2J3J4J5M1RWXY/LB1D1 |
Departure
| Time | 2026-05-04 13:58 |
|---|---|
| Airport | Chhatrapati Shivaji Maharaj International Airport (VABB) |
Arrival
| Time | N/A |
|---|---|
| Airport | Rome–Fiumicino Leonardo da Vinci International Airport (LIRF) |
| Time | Latitude | Longitude | Altitude | Speed | Heading |
|---|---|---|---|---|---|
| 2026-05-04 13:11 | 19.09313 | 72.87199 | 38 ft | 0 kts | 336° |
| 2026-05-04 13:49 | 19.09312 | 72.87199 | 38 ft | 0 kts | 336° |
| 2026-05-04 13:50 | 19.09313 | 72.87199 | 38 ft | 0 kts | 336° |
| 2026-05-04 13:50 | 19.09311 | 72.87199 | 38 ft | 2 kts | 336° |
| 2026-05-04 13:51 | 19.09296 | 72.87206 | 37 ft | 2 kts | 336° |
| 2026-05-04 13:51 | 19.09281 | 72.87213 | 37 ft | 2 kts | 336° |
| 2026-05-04 13:51 | 19.09270 | 72.87218 | 34 ft | 2 kts | 336° |
| 2026-05-04 13:51 | 19.09255 | 72.87225 | 36 ft | 2 kts | 336° |
| 2026-05-04 13:52 | 19.09236 | 72.87211 | 32 ft | 2 kts | 92° |
| 2026-05-04 13:52 | 19.09237 | 72.87199 | 34 ft | 0 kts | 92° |
| 2026-05-04 13:54 | 19.09222 | 72.87229 | 38 ft | 10 kts | 129° |
| 2026-05-04 13:54 | 19.09129 | 72.87263 | 38 ft | 7 kts | 173° |
| 2026-05-04 13:54 | 19.09062 | 72.87308 | 38 ft | 13 kts | 110° |
| 2026-05-04 13:55 | 19.09054 | 72.87432 | 38 ft | 19 kts | 88° |
| 2026-05-04 13:55 | 19.09061 | 72.87713 | 37 ft | 19 kts | 88° |
| 2026-05-04 13:55 | 19.09060 | 72.87855 | 37 ft | 19 kts | 92° |
| 2026-05-04 13:56 | 19.09058 | 72.87957 | 37 ft | 8 kts | 89° |
| 2026-05-04 13:56 | 19.09051 | 72.88016 | 37 ft | 8 kts | 124° |
| 2026-05-04 13:56 | 19.08915 | 72.88031 | 34 ft | 11 kts | 216° |
| 2026-05-04 13:57 | 19.08889 | 72.87948 | 35 ft | 0 kts | 273° |
| 2026-05-04 13:57 | 19.08890 | 72.87875 | 35 ft | 34 kts | 269° |
| 2026-05-04 13:58 | 19.08867 | 72.85027 | 131 ft | 194 kts | 270° |
| 2026-05-04 13:58 | 19.08774 | 72.82133 | 791 ft | 208 kts | 269° |
| 2026-05-04 13:58 | 19.08811 | 72.80621 | 1608 ft | 192 kts | 268° |
| 2026-05-04 13:59 | 19.08793 | 72.79224 | 2258 ft | 195 kts | 267° |
| 2026-05-04 13:59 | 19.08760 | 72.77696 | 2442 ft | 217 kts | 268° |
| 2026-05-04 13:59 | 19.08715 | 72.74237 | 3181 ft | 245 kts | 273° |
| 2026-05-04 14:00 | 19.08936 | 72.72409 | 3645 ft | 255 kts | 278° |
| 2026-05-04 14:00 | 19.09384 | 72.68681 | 4968 ft | 260 kts | 277° |
| 2026-05-04 14:00 | 19.09597 | 72.66760 | 5612 ft | 263 kts | 277° |
| 2026-05-04 14:01 | 19.09813 | 72.64801 | 6259 ft | 265 kts | 277° |
| 2026-05-04 14:01 | 19.10026 | 72.62849 | 6835 ft | 270 kts | 277° |
| 2026-05-04 14:01 | 19.10434 | 72.59080 | 7868 ft | 279 kts | 277° |
| 2026-05-04 14:02 | 19.10656 | 72.57026 | 8431 ft | 285 kts | 276° |
| 2026-05-04 14:02 | 19.10882 | 72.54912 | 8919 ft | 291 kts | 276° |
| 2026-05-04 14:02 | 19.11112 | 72.52771 | 9471 ft | 297 kts | 276° |
| 2026-05-04 14:02 | 19.11346 | 72.50584 | 9950 ft | 302 kts | 276° |
| 2026-05-04 14:03 | 19.11591 | 72.48293 | 10229 ft | 320 kts | 276° |
| 2026-05-04 14:03 | 19.11849 | 72.45876 | 10387 ft | 340 kts | 276° |
| 2026-05-04 14:03 | 19.12118 | 72.43349 | 10556 ft | 360 kts | 276° |
| 2026-05-04 14:03 | 19.12409 | 72.40619 | 10807 ft | 375 kts | 276° |
| 2026-05-04 14:04 | 19.12963 | 72.35397 | 12069 ft | 382 kts | 276° |
| 2026-05-04 14:04 | 19.13257 | 72.32626 | 13012 ft | 381 kts | 276° |
| 2026-05-04 14:04 | 19.13557 | 72.29798 | 13612 ft | 388 kts | 276° |
| 2026-05-04 14:05 | 19.14165 | 72.24057 | 14959 ft | 393 kts | 276° |
| 2026-05-04 14:05 | 19.14470 | 72.21156 | 15564 ft | 398 kts | 276° |
| 2026-05-04 14:05 | 19.14778 | 72.18236 | 16179 ft | 402 kts | 276° |
| 2026-05-04 14:06 | 19.15089 | 72.15277 | 16795 ft | 406 kts | 276° |
| 2026-05-04 14:06 | 19.15399 | 72.12327 | 17403 ft | 410 kts | 276° |
| 2026-05-04 14:06 | 19.15714 | 72.09325 | 18034 ft | 413 kts | 277° |
| 2026-05-04 14:06 | 19.16091 | 72.06332 | 18558 ft | 417 kts | 279° |
| 2026-05-04 14:07 | 19.16560 | 72.03227 | 19112 ft | 420 kts | 279° |
| 2026-05-04 14:07 | 19.17043 | 72.00188 | 19662 ft | 422 kts | 280° |
| 2026-05-04 14:07 | 19.17532 | 71.97121 | 20194 ft | 425 kts | 280° |
| 2026-05-04 14:07 | 19.18021 | 71.94012 | 20724 ft | 428 kts | 280° |
| 2026-05-04 14:08 | 19.18501 | 71.90908 | 21224 ft | 431 kts | 280° |
| 2026-05-04 14:08 | 19.18974 | 71.87809 | 21737 ft | 433 kts | 279° |
| 2026-05-04 14:08 | 19.19459 | 71.84597 | 22234 ft | 437 kts | 279° |
| 2026-05-04 14:08 | 19.19947 | 71.81353 | 22738 ft | 440 kts | 279° |
| 2026-05-04 14:09 | 19.20902 | 71.74964 | 23616 ft | 445 kts | 280° |
| 2026-05-04 14:09 | 19.21393 | 71.71670 | 23980 ft | 448 kts | 280° |
| 2026-05-04 14:10 | 19.22370 | 71.65115 | 24700 ft | 453 kts | 280° |
| 2026-05-04 14:10 | 19.22856 | 71.61845 | 25047 ft | 456 kts | 280° |
| 2026-05-04 14:10 | 19.23349 | 71.58528 | 25391 ft | 458 kts | 280° |
| 2026-05-04 14:10 | 19.23850 | 71.55147 | 25736 ft | 460 kts | 281° |
| 2026-05-04 14:11 | 19.24344 | 71.51816 | 26064 ft | 463 kts | 281° |
| 2026-05-04 14:11 | 19.25345 | 71.45048 | 26703 ft | 468 kts | 281° |
| 2026-05-04 14:11 | 19.25849 | 71.41630 | 27018 ft | 470 kts | 281° |
| 2026-05-04 14:12 | 19.26354 | 71.38204 | 27338 ft | 473 kts | 281° |
| 2026-05-04 14:12 | 19.26693 | 71.35900 | 27529 ft | 474 kts | 281° |
| 2026-05-04 14:12 | 19.27715 | 71.28946 | 28085 ft | 478 kts | 281° |
| 2026-05-04 14:13 | 19.28225 | 71.25472 | 28370 ft | 480 kts | 281° |
| 2026-05-04 14:13 | 19.28738 | 71.21970 | 28619 ft | 482 kts | 281° |
| 2026-05-04 14:13 | 19.29253 | 71.18446 | 28854 ft | 484 kts | 281° |
| 2026-05-04 14:13 | 19.29767 | 71.14923 | 29094 ft | 486 kts | 281° |
| 2026-05-04 14:14 | 19.30284 | 71.11382 | 29320 ft | 488 kts | 281° |
| 2026-05-04 14:14 | 19.31317 | 71.04285 | 29772 ft | 490 kts | 281° |
| 2026-05-04 14:14 | 19.31836 | 71.00705 | 30000 ft | 490 kts | 281° |
| 2026-05-04 14:15 | 19.32871 | 70.93558 | 30553 ft | 488 kts | 281° |
| 2026-05-04 14:15 | 19.33893 | 70.86478 | 31097 ft | 486 kts | 281° |
| 2026-05-04 14:16 | 19.34919 | 70.79363 | 31643 ft | 485 kts | 281° |
| 2026-05-04 14:16 | 19.35420 | 70.75881 | 31917 ft | 484 kts | 281° |
| 2026-05-04 14:17 | 19.36432 | 70.68830 | 32461 ft | 482 kts | 280° |
| 2026-05-04 14:17 | 19.36934 | 70.65323 | 32735 ft | 482 kts | 280° |
| 2026-05-04 14:17 | 19.37937 | 70.58305 | 33265 ft | 480 kts | 280° |
| 2026-05-04 14:18 | 19.38434 | 70.54820 | 33541 ft | 479 kts | 280° |
| 2026-05-04 14:18 | 19.39434 | 70.47797 | 33765 ft | 482 kts | 280° |
| 2026-05-04 14:19 | 19.40425 | 70.40815 | 33784 ft | 480 kts | 280° |
| 2026-05-04 14:19 | 19.41414 | 70.33823 | 33793 ft | 478 kts | 280° |
| 2026-05-04 14:20 | 19.42401 | 70.26833 | 33795 ft | 478 kts | 280° |
| 2026-05-04 14:20 | 19.43381 | 70.19869 | 33794 ft | 479 kts | 280° |
| 2026-05-04 14:21 | 19.44852 | 70.09380 | 33792 ft | 478 kts | 280° |
| 2026-05-04 14:21 | 19.45826 | 70.02403 | 33790 ft | 478 kts | 280° |
| 2026-05-04 14:22 | 19.46797 | 69.95434 | 33793 ft | 478 kts | 280° |
| 2026-05-04 14:22 | 19.47767 | 69.88456 | 33790 ft | 478 kts | 280° |
| 2026-05-04 14:23 | 19.49212 | 69.78015 | 33796 ft | 478 kts | 280° |
| 2026-05-04 14:24 | 19.50174 | 69.71040 | 33791 ft | 478 kts | 280° |
| 2026-05-04 14:24 | 19.51133 | 69.64070 | 33795 ft | 477 kts | 280° |
| 2026-05-04 14:25 | 19.52089 | 69.57098 | 33792 ft | 478 kts | 279° |
| 2026-05-04 14:25 | 19.53525 | 69.46586 | 33791 ft | 478 kts | 279° |
| 2026-05-04 14:26 | 19.54489 | 69.39631 | 33792 ft | 477 kts | 282° |
| 2026-05-04 14:26 | 19.56287 | 69.32907 | 33796 ft | 475 kts | 291° |
| 2026-05-04 14:27 | 19.59100 | 69.26553 | 33800 ft | 475 kts | 298° |
| 2026-05-04 14:27 | 19.62148 | 69.20320 | 33793 ft | 475 kts | 298° |
| 2026-05-04 14:28 | 19.65163 | 69.14083 | 33790 ft | 475 kts | 297° |
| 2026-05-04 14:28 | 19.68169 | 69.07826 | 33792 ft | 475 kts | 297° |
| 2026-05-04 14:29 | 19.74154 | 68.95329 | 33789 ft | 475 kts | 297° |
| 2026-05-04 14:30 | 19.77146 | 68.89074 | 33792 ft | 474 kts | 297° |
| 2026-05-04 14:31 | 19.81618 | 68.79714 | 33787 ft | 475 kts | 297° |
| 2026-05-04 14:32 | 19.87590 | 68.67188 | 33788 ft | 474 kts | 297° |
| 2026-05-04 14:32 | 19.90573 | 68.60922 | 33787 ft | 474 kts | 297° |
| 2026-05-04 14:33 | 19.93550 | 68.54661 | 33787 ft | 474 kts | 297° |
| 2026-05-04 14:33 | 19.96518 | 68.48412 | 33787 ft | 474 kts | 297° |
| 2026-05-04 14:34 | 19.99489 | 68.42148 | 33787 ft | 473 kts | 297° |
| 2026-05-04 14:34 | 20.02453 | 68.35895 | 33786 ft | 473 kts | 297° |
| 2026-05-04 14:35 | 20.05406 | 68.29655 | 33788 ft | 473 kts | 297° |
| 2026-05-04 14:35 | 20.08373 | 68.23381 | 33784 ft | 473 kts | 297° |
| 2026-05-04 14:36 | 20.11328 | 68.17124 | 33784 ft | 473 kts | 297° |
| 2026-05-04 14:36 | 20.14279 | 68.10869 | 33784 ft | 472 kts | 297° |
| 2026-05-04 14:37 | 20.17211 | 68.04645 | 33781 ft | 472 kts | 297° |
| 2026-05-04 14:37 | 20.20181 | 67.98337 | 33778 ft | 472 kts | 297° |
| 2026-05-04 14:38 | 20.23096 | 67.92136 | 33781 ft | 472 kts | 297° |
| 2026-05-04 14:38 | 20.26062 | 67.85821 | 33780 ft | 472 kts | 297° |
| 2026-05-04 14:39 | 20.29001 | 67.79555 | 33779 ft | 472 kts | 297° |
| 2026-05-04 14:39 | 20.31922 | 67.73321 | 33779 ft | 471 kts | 297° |
| 2026-05-04 14:40 | 20.35798 | 67.65040 | 33777 ft | 471 kts | 297° |
| 2026-05-04 14:40 | 20.38680 | 67.58873 | 33781 ft | 471 kts | 297° |
| 2026-05-04 14:41 | 20.41596 | 67.52626 | 33773 ft | 471 kts | 297° |
| 2026-05-04 14:42 | 20.47422 | 67.40125 | 33778 ft | 471 kts | 297° |
| 2026-05-04 14:42 | 20.50342 | 67.33846 | 33776 ft | 471 kts | 297° |
| 2026-05-04 14:43 | 20.53259 | 67.27569 | 33776 ft | 470 kts | 297° |
| 2026-05-04 14:43 | 20.56165 | 67.21308 | 33776 ft | 471 kts | 297° |
| 2026-05-04 14:44 | 20.59071 | 67.15039 | 33774 ft | 471 kts | 297° |
| 2026-05-04 14:44 | 20.61978 | 67.08763 | 33775 ft | 470 kts | 297° |
| 2026-05-04 14:45 | 20.64853 | 67.02547 | 33772 ft | 470 kts | 297° |
| 2026-05-04 14:45 | 20.67754 | 66.96267 | 33773 ft | 470 kts | 297° |
| 2026-05-04 14:46 | 20.70647 | 66.89996 | 33774 ft | 470 kts | 297° |
| 2026-05-04 14:46 | 20.73554 | 66.83690 | 33773 ft | 470 kts | 297° |
| 2026-05-04 14:47 | 20.76425 | 66.77454 | 33772 ft | 470 kts | 297° |
| 2026-05-04 14:47 | 20.79317 | 66.71165 | 33772 ft | 470 kts | 297° |
| 2026-05-04 14:48 | 20.82195 | 66.64899 | 33769 ft | 470 kts | 296° |
| 2026-05-04 14:48 | 20.85076 | 66.58617 | 33767 ft | 470 kts | 296° |
| 2026-05-04 14:49 | 20.87963 | 66.52317 | 33770 ft | 470 kts | 296° |
| 2026-05-04 14:49 | 20.90832 | 66.46049 | 33767 ft | 470 kts | 296° |
| 2026-05-04 14:50 | 20.93710 | 66.39753 | 33763 ft | 470 kts | 296° |
| 2026-05-04 14:50 | 20.96550 | 66.33533 | 33765 ft | 469 kts | 296° |
| 2026-05-04 14:51 | 20.99439 | 66.27196 | 33767 ft | 469 kts | 296° |
| 2026-05-04 14:51 | 21.02290 | 66.20937 | 33768 ft | 469 kts | 296° |
| 2026-05-04 14:52 | 21.05163 | 66.14621 | 33764 ft | 469 kts | 296° |
| 2026-05-04 14:52 | 21.08017 | 66.08341 | 33765 ft | 469 kts | 296° |
| 2026-05-04 14:53 | 21.10866 | 66.02064 | 33763 ft | 469 kts | 296° |
| 2026-05-04 14:53 | 21.13763 | 65.95764 | 33759 ft | 469 kts | 297° |
| 2026-05-04 14:54 | 21.16702 | 65.89560 | 33765 ft | 469 kts | 297° |
| 2026-05-04 14:54 | 21.19650 | 65.83340 | 33759 ft | 469 kts | 297° |
| 2026-05-04 14:55 | 21.22595 | 65.77096 | 33755 ft | 468 kts | 297° |
| 2026-05-04 14:55 | 21.25527 | 65.70856 | 33760 ft | 468 kts | 297° |
| 2026-05-04 14:56 | 21.28453 | 65.64619 | 33759 ft | 468 kts | 297° |
| 2026-05-04 14:56 | 21.31374 | 65.58386 | 33761 ft | 468 kts | 297° |
| 2026-05-04 14:57 | 21.34274 | 65.52190 | 33755 ft | 467 kts | 297° |
| 2026-05-04 14:57 | 21.37207 | 65.45919 | 33759 ft | 467 kts | 297° |
| 2026-05-04 14:58 | 21.40128 | 65.39663 | 33760 ft | 468 kts | 297° |
| 2026-05-04 14:58 | 21.43045 | 65.33411 | 33761 ft | 468 kts | 296° |
| 2026-05-04 14:59 | 21.45936 | 65.27206 | 33754 ft | 468 kts | 296° |
| 2026-05-04 15:00 | 21.50297 | 65.17831 | 33764 ft | 467 kts | 296° |
| 2026-05-04 15:00 | 21.53222 | 65.11535 | 33755 ft | 467 kts | 296° |
| 2026-05-04 15:01 | 21.57545 | 65.02214 | 33760 ft | 467 kts | 296° |
| 2026-05-04 15:01 | 21.60445 | 64.95954 | 33756 ft | 466 kts | 296° |
| 2026-05-04 15:02 | 21.63347 | 64.89678 | 33759 ft | 467 kts | 296° |
| 2026-05-04 15:02 | 21.66219 | 64.83464 | 33759 ft | 467 kts | 296° |
| 2026-05-04 15:03 | 21.69111 | 64.77195 | 33754 ft | 467 kts | 296° |
| 2026-05-04 15:03 | 21.71999 | 64.70930 | 33762 ft | 466 kts | 296° |
| 2026-05-04 15:04 | 21.74876 | 64.64680 | 33758 ft | 467 kts | 296° |
| 2026-05-04 15:04 | 21.77755 | 64.58419 | 33758 ft | 467 kts | 296° |
| 2026-05-04 15:05 | 21.80634 | 64.52150 | 33755 ft | 467 kts | 296° |
| 2026-05-04 15:05 | 21.83500 | 64.45899 | 33759 ft | 467 kts | 296° |
| 2026-05-04 15:06 | 21.86395 | 64.39579 | 33754 ft | 467 kts | 296° |
| 2026-05-04 15:07 | 21.90212 | 64.31236 | 33752 ft | 467 kts | 296° |
| 2026-05-04 15:07 | 21.93065 | 64.24988 | 33756 ft | 467 kts | 296° |
| 2026-05-04 15:08 | 21.95940 | 64.18687 | 33751 ft | 467 kts | 296° |
| 2026-05-04 15:08 | 21.98799 | 64.12412 | 33758 ft | 467 kts | 296° |
| 2026-05-04 15:09 | 22.01667 | 64.06112 | 33753 ft | 467 kts | 296° |
| 2026-05-04 15:09 | 22.04521 | 63.99831 | 33754 ft | 467 kts | 296° |
| 2026-05-04 15:10 | 22.08804 | 63.90393 | 33757 ft | 466 kts | 296° |
| 2026-05-04 15:11 | 22.13105 | 63.80898 | 33747 ft | 468 kts | 296° |
| 2026-05-04 15:11 | 22.15958 | 63.74589 | 33753 ft | 468 kts | 296° |
| 2026-05-04 15:12 | 22.18792 | 63.68314 | 33749 ft | 467 kts | 296° |
| 2026-05-04 15:12 | 22.21653 | 63.61972 | 33748 ft | 467 kts | 296° |
| 2026-05-04 15:13 | 22.24495 | 63.55664 | 33748 ft | 467 kts | 296° |
| 2026-05-04 15:13 | 22.27336 | 63.49350 | 33746 ft | 467 kts | 296° |
| 2026-05-04 15:14 | 22.30157 | 63.43073 | 33750 ft | 467 kts | 296° |
| 2026-05-04 15:14 | 22.32986 | 63.36769 | 33740 ft | 467 kts | 296° |
| 2026-05-04 15:15 | 22.35824 | 63.30437 | 33747 ft | 467 kts | 296° |
| 2026-05-04 15:15 | 22.38657 | 63.24108 | 33743 ft | 468 kts | 296° |
| 2026-05-04 15:16 | 22.42782 | 63.14522 | 33740 ft | 468 kts | 289° |
| 2026-05-04 15:17 | 22.44722 | 63.04766 | 33739 ft | 470 kts | 275° |
| 2026-05-04 15:17 | 22.45370 | 62.93533 | 33746 ft | 470 kts | 275° |
| 2026-05-04 15:18 | 22.45805 | 62.86395 | 33734 ft | 470 kts | 275° |
| 2026-05-04 15:19 | 22.46464 | 62.75816 | 33744 ft | 469 kts | 275° |
| 2026-05-04 15:19 | 22.47119 | 62.65246 | 33735 ft | 470 kts | 275° |
| 2026-05-04 15:20 | 22.47555 | 62.58135 | 33738 ft | 469 kts | 275° |
| 2026-05-04 15:20 | 22.47984 | 62.51082 | 33735 ft | 469 kts | 275° |
| 2026-05-04 15:21 | 22.48409 | 62.44031 | 33738 ft | 470 kts | 275° |
| 2026-05-04 15:22 | 22.49043 | 62.33443 | 33735 ft | 471 kts | 275° |
| 2026-05-04 15:22 | 22.49672 | 62.22810 | 33742 ft | 470 kts | 275° |
| 2026-05-04 15:23 | 22.50086 | 62.15753 | 33738 ft | 471 kts | 275° |
| 2026-05-04 15:23 | 22.50499 | 62.08660 | 33739 ft | 471 kts | 275° |
| 2026-05-04 15:24 | 22.51244 | 61.95709 | 33736 ft | 470 kts | 275° |
| 2026-05-04 15:25 | 22.51646 | 61.88650 | 33735 ft | 470 kts | 275° |
| 2026-05-04 15:26 | 22.52248 | 61.77990 | 33735 ft | 470 kts | 275° |
| 2026-05-04 15:26 | 22.52840 | 61.67362 | 33734 ft | 470 kts | 275° |
| 2026-05-04 15:27 | 22.53428 | 61.56681 | 33734 ft | 469 kts | 275° |
| 2026-05-04 15:28 | 22.54004 | 61.46098 | 33728 ft | 469 kts | 274° |
| 2026-05-04 15:29 | 22.54576 | 61.35460 | 33727 ft | 469 kts | 275° |
| 2026-05-04 15:30 | 22.55876 | 61.10781 | 33728 ft | 469 kts | 274° |
| 2026-05-04 15:31 | 22.56425 | 61.00131 | 33726 ft | 471 kts | 274° |
| 2026-05-04 15:32 | 22.57323 | 60.82405 | 33727 ft | 470 kts | 274° |
| 2026-05-04 15:34 | 22.58198 | 60.64716 | 33733 ft | 471 kts | 274° |
| 2026-05-04 15:34 | 22.58719 | 60.54018 | 33727 ft | 471 kts | 274° |
| 2026-05-04 15:35 | 22.59227 | 60.43458 | 33729 ft | 471 kts | 274° |
| 2026-05-04 15:36 | 22.59738 | 60.32696 | 33728 ft | 471 kts | 274° |
| 2026-05-04 15:36 | 22.60070 | 60.25625 | 33728 ft | 471 kts | 274° |
| 2026-05-04 15:37 | 22.60401 | 60.18514 | 33726 ft | 471 kts | 274° |
| 2026-05-04 15:37 | 22.60727 | 60.11439 | 33732 ft | 471 kts | 274° |
| 2026-05-04 15:38 | 22.61048 | 60.04407 | 33732 ft | 472 kts | 274° |
| 2026-05-04 15:38 | 22.61371 | 59.97255 | 33729 ft | 472 kts | 274° |
| 2026-05-04 15:39 | 22.61635 | 59.91363 | 33722 ft | 472 kts | 274° |
| 2026-05-04 15:40 | 22.62109 | 59.80657 | 33725 ft | 472 kts | 274° |
| 2026-05-04 15:40 | 22.62420 | 59.73547 | 33724 ft | 472 kts | 274° |
| 2026-05-04 15:41 | 22.62725 | 59.66443 | 33726 ft | 473 kts | 274° |
| 2026-05-04 15:41 | 22.63027 | 59.59341 | 33723 ft | 473 kts | 274° |
| 2026-05-04 15:42 | 22.63326 | 59.52227 | 33736 ft | 472 kts | 274° |
| 2026-05-04 15:42 | 22.63622 | 59.45116 | 33743 ft | 472 kts | 274° |
| 2026-05-04 15:43 | 22.63918 | 59.37950 | 33748 ft | 472 kts | 274° |
| 2026-05-04 15:43 | 22.64206 | 59.30896 | 33761 ft | 473 kts | 274° |
| 2026-05-04 15:44 | 22.64495 | 59.23733 | 33768 ft | 473 kts | 274° |
| 2026-05-04 15:44 | 22.64783 | 59.16522 | 33763 ft | 473 kts | 274° |
| 2026-05-04 15:45 | 22.65061 | 59.09419 | 33778 ft | 473 kts | 273° |
| 2026-05-04 15:45 | 22.65340 | 59.02270 | 33771 ft | 473 kts | 273° |
| 2026-05-04 15:46 | 22.65615 | 58.95154 | 33776 ft | 473 kts | 273° |
| 2026-05-04 15:46 | 22.65891 | 58.87964 | 33776 ft | 474 kts | 273° |
| 2026-05-04 15:47 | 22.66158 | 58.80842 | 33767 ft | 474 kts | 273° |
| 2026-05-04 15:47 | 22.66423 | 58.73719 | 33768 ft | 474 kts | 273° |
| 2026-05-04 15:48 | 22.66674 | 58.66905 | 33762 ft | 474 kts | 273° |
| 2026-05-04 15:48 | 22.67907 | 58.56534 | 33763 ft | 473 kts | 286° |
| 2026-05-04 15:49 | 22.69786 | 58.49665 | 33766 ft | 474 kts | 286° |
| 2026-05-04 15:49 | 22.71621 | 58.42754 | 33766 ft | 473 kts | 286° |
| 2026-05-04 15:50 | 22.73392 | 58.35986 | 33763 ft | 473 kts | 286° |
| 2026-05-04 15:50 | 22.75208 | 58.29027 | 33768 ft | 473 kts | 286° |
| 2026-05-04 15:51 | 22.77005 | 58.22134 | 33767 ft | 472 kts | 286° |
| 2026-05-04 15:51 | 22.78783 | 58.15305 | 33772 ft | 472 kts | 285° |
| 2026-05-04 15:52 | 22.80267 | 58.09596 | 33770 ft | 472 kts | 285° |
| 2026-05-04 15:52 | 22.82038 | 58.02772 | 33774 ft | 471 kts | 285° |
| 2026-05-04 15:53 | 22.83806 | 57.95945 | 33773 ft | 471 kts | 285° |
| 2026-05-04 15:53 | 22.85486 | 57.89446 | 33780 ft | 471 kts | 285° |
| 2026-05-04 15:54 | 22.87250 | 57.82609 | 33785 ft | 471 kts | 285° |
| 2026-05-04 15:54 | 22.89012 | 57.75768 | 33797 ft | 471 kts | 285° |
| 2026-05-04 15:55 | 22.90727 | 57.68908 | 33799 ft | 471 kts | 285° |
| 2026-05-04 15:55 | 22.92415 | 57.62041 | 33807 ft | 471 kts | 285° |
| 2026-05-04 15:56 | 22.94105 | 57.55178 | 33819 ft | 470 kts | 285° |
| 2026-05-04 15:56 | 22.95799 | 57.48309 | 33817 ft | 470 kts | 285° |
| 2026-05-04 15:57 | 22.97496 | 57.41414 | 33827 ft | 468 kts | 285° |
| 2026-05-04 15:57 | 22.99040 | 57.34610 | 33821 ft | 467 kts | 277° |
| 2026-05-04 15:58 | 22.99050 | 57.31094 | 33838 ft | 470 kts | 264° |
| 2026-05-04 15:58 | 22.98404 | 57.27597 | 33836 ft | 474 kts | 255° |
| 2026-05-04 15:58 | 22.95605 | 57.21093 | 33831 ft | 478 kts | 244° |
| 2026-05-04 15:59 | 22.92452 | 57.14717 | 33817 ft | 477 kts | 244° |
| 2026-05-04 15:59 | 22.89384 | 57.08333 | 33810 ft | 476 kts | 245° |
| 2026-05-04 16:00 | 22.86336 | 57.01938 | 33814 ft | 477 kts | 245° |
| 2026-05-04 16:00 | 22.83283 | 56.95546 | 33813 ft | 478 kts | 245° |
| 2026-05-04 16:01 | 22.80231 | 56.89170 | 33805 ft | 477 kts | 245° |
| 2026-05-04 16:01 | 22.77166 | 56.82771 | 33801 ft | 476 kts | 245° |
| 2026-05-04 16:02 | 22.74115 | 56.76401 | 33796 ft | 477 kts | 245° |
| 2026-05-04 16:03 | 22.69539 | 56.66864 | 33784 ft | 477 kts | 245° |
| 2026-05-04 16:03 | 22.66475 | 56.60492 | 33785 ft | 476 kts | 245° |
| 2026-05-04 16:04 | 22.63388 | 56.54074 | 33777 ft | 476 kts | 245° |
| 2026-05-04 16:04 | 22.58810 | 56.44574 | 33774 ft | 477 kts | 245° |
| 2026-05-04 16:05 | 22.55722 | 56.38177 | 33768 ft | 476 kts | 245° |
| 2026-05-04 16:06 | 22.51115 | 56.28672 | 33766 ft | 476 kts | 244° |
| 2026-05-04 16:07 | 22.44958 | 56.15999 | 33764 ft | 476 kts | 244° |
| 2026-05-04 16:08 | 22.38811 | 56.03371 | 33759 ft | 475 kts | 244° |
| 2026-05-04 16:09 | 22.31060 | 55.87583 | 33762 ft | 475 kts | 244° |
| 2026-05-04 16:10 | 22.24845 | 55.74962 | 33754 ft | 475 kts | 244° |
| 2026-05-04 16:11 | 22.18667 | 55.62415 | 33750 ft | 474 kts | 244° |
| 2026-05-04 16:12 | 22.14708 | 55.52704 | 33750 ft | 471 kts | 256° |
| 2026-05-04 16:12 | 22.12275 | 55.42401 | 33752 ft | 471 kts | 257° |
| 2026-05-04 16:13 | 22.08911 | 55.28726 | 33751 ft | 471 kts | 256° |
| 2026-05-04 16:14 | 22.05535 | 55.15054 | 33752 ft | 472 kts | 256° |
| 2026-05-04 16:16 | 22.01309 | 54.97990 | 33750 ft | 472 kts | 256° |
| 2026-05-04 16:17 | 21.97054 | 54.80896 | 33754 ft | 472 kts | 256° |
| 2026-05-04 16:18 | 21.93645 | 54.67254 | 33749 ft | 472 kts | 256° |
| 2026-05-04 16:19 | 21.89638 | 54.51292 | 33760 ft | 472 kts | 256° |
| 2026-05-04 16:20 | 21.85329 | 54.34200 | 33753 ft | 473 kts | 256° |
| 2026-05-04 16:22 | 21.80997 | 54.17100 | 33754 ft | 473 kts | 256° |
| 2026-05-04 16:23 | 21.75780 | 53.96612 | 33751 ft | 473 kts | 256° |
| 2026-05-04 16:25 | 21.70536 | 53.76130 | 33758 ft | 474 kts | 255° |
| 2026-05-04 16:26 | 21.64302 | 53.51927 | 33759 ft | 480 kts | 255° |
| 2026-05-04 16:28 | 21.59823 | 53.34634 | 33762 ft | 480 kts | 255° |
| 2026-05-04 16:29 | 21.53503 | 53.10368 | 33760 ft | 481 kts | 255° |
| 2026-05-04 16:31 | 21.48975 | 52.93078 | 33759 ft | 481 kts | 255° |
| 2026-05-04 16:31 | 21.46242 | 52.82681 | 34209 ft | 480 kts | 255° |
| 2026-05-04 16:32 | 21.43516 | 52.72339 | 35155 ft | 474 kts | 255° |
| 2026-05-04 16:33 | 21.41715 | 52.65520 | 35653 ft | 474 kts | 255° |
| 2026-05-04 16:33 | 21.39916 | 52.58719 | 35744 ft | 474 kts | 255° |
| 2026-05-04 16:34 | 21.37206 | 52.48502 | 35764 ft | 473 kts | 255° |
| 2026-05-04 16:35 | 21.31783 | 52.28133 | 35769 ft | 473 kts | 255° |
| 2026-05-04 16:36 | 21.29061 | 52.17949 | 35766 ft | 473 kts | 255° |
| 2026-05-04 16:37 | 21.26333 | 52.07770 | 35767 ft | 473 kts | 255° |
| 2026-05-04 16:38 | 21.22679 | 51.94178 | 35768 ft | 474 kts | 255° |
| 2026-05-04 16:39 | 21.18097 | 51.77200 | 35768 ft | 473 kts | 254° |
| 2026-05-04 16:40 | 21.14434 | 51.63678 | 35768 ft | 474 kts | 254° |
| 2026-05-04 16:41 | 21.09820 | 51.46714 | 35768 ft | 474 kts | 254° |
| 2026-05-04 16:43 | 21.05196 | 51.29783 | 35772 ft | 474 kts | 254° |
| 2026-05-04 16:43 | 21.02717 | 51.20738 | 35766 ft | 474 kts | 254° |
| 2026-05-04 16:45 | 20.97048 | 51.00123 | 35769 ft | 473 kts | 254° |
| 2026-05-04 16:46 | 20.92382 | 50.83238 | 35771 ft | 474 kts | 254° |
| 2026-05-04 16:47 | 20.88631 | 50.69715 | 35773 ft | 473 kts | 254° |
| 2026-05-04 16:48 | 20.84869 | 50.56196 | 35776 ft | 473 kts | 253° |
| 2026-05-04 16:49 | 20.81118 | 50.42761 | 35778 ft | 473 kts | 253° |
| 2026-05-04 16:50 | 20.77336 | 50.29260 | 35777 ft | 472 kts | 253° |
| 2026-05-04 16:51 | 20.74499 | 50.19162 | 35779 ft | 472 kts | 253° |
| 2026-05-04 16:52 | 20.70704 | 50.05691 | 35777 ft | 472 kts | 253° |
| 2026-05-04 16:53 | 20.67858 | 49.95618 | 35777 ft | 471 kts | 253° |
| 2026-05-04 16:54 | 20.64063 | 49.82225 | 35778 ft | 471 kts | 253° |
| 2026-05-04 16:55 | 20.58352 | 49.62150 | 35781 ft | 471 kts | 253° |
| 2026-05-04 16:56 | 20.53583 | 49.45457 | 35782 ft | 471 kts | 253° |
| 2026-05-04 16:57 | 20.50711 | 49.35440 | 35781 ft | 470 kts | 253° |
| 2026-05-04 16:58 | 20.46879 | 49.22107 | 35781 ft | 470 kts | 253° |
| 2026-05-04 17:00 | 20.41114 | 49.02129 | 35781 ft | 469 kts | 253° |
| 2026-05-04 17:01 | 20.36295 | 48.85499 | 35782 ft | 470 kts | 252° |
| 2026-05-04 17:02 | 20.32429 | 48.72204 | 35782 ft | 470 kts | 252° |
| 2026-05-04 17:03 | 20.29513 | 48.62205 | 35785 ft | 470 kts | 252° |
| 2026-05-04 17:03 | 20.26610 | 48.52269 | 35784 ft | 469 kts | 252° |
| 2026-05-04 17:04 | 20.23264 | 48.40032 | 35778 ft | 470 kts | 261° |
| 2026-05-04 17:05 | 20.23488 | 48.26121 | 35788 ft | 472 kts | 275° |
| 2026-05-04 17:06 | 20.24556 | 48.15682 | 35781 ft | 472 kts | 275° |
| 2026-05-04 17:07 | 20.25456 | 48.06433 | 35784 ft | 471 kts | 274° |
| 2026-05-04 17:07 | 20.26235 | 47.98302 | 35785 ft | 471 kts | 274° |
| 2026-05-04 17:08 | 20.27225 | 47.87915 | 35789 ft | 471 kts | 274° |
| 2026-05-04 17:09 | 20.27887 | 47.80947 | 35787 ft | 471 kts | 274° |
| 2026-05-04 17:09 | 20.28544 | 47.74004 | 35784 ft | 471 kts | 274° |
| 2026-05-04 17:10 | 20.30177 | 47.56608 | 35791 ft | 471 kts | 274° |
| 2026-05-04 17:11 | 20.30825 | 47.49648 | 35792 ft | 471 kts | 274° |
| 2026-05-04 17:12 | 20.31788 | 47.39261 | 35794 ft | 471 kts | 274° |
| 2026-05-04 17:13 | 20.33383 | 47.21894 | 35800 ft | 470 kts | 274° |
| 2026-05-04 17:14 | 20.34646 | 47.07997 | 35802 ft | 471 kts | 274° |
| 2026-05-04 17:15 | 20.35586 | 46.97582 | 35810 ft | 471 kts | 274° |
| 2026-05-04 17:16 | 20.36832 | 46.83665 | 35812 ft | 470 kts | 274° |
| 2026-05-04 17:17 | 20.38064 | 46.69776 | 35816 ft | 470 kts | 274° |
| 2026-05-04 17:18 | 20.39272 | 46.55912 | 35825 ft | 470 kts | 274° |
| 2026-05-04 17:19 | 20.40472 | 46.42024 | 35833 ft | 470 kts | 274° |
| 2026-05-04 17:20 | 20.41662 | 46.28136 | 35839 ft | 470 kts | 274° |
| 2026-05-04 17:20 | 20.42543 | 46.17757 | 35843 ft | 470 kts | 274° |
| 2026-05-04 17:21 | 20.43715 | 46.03850 | 35846 ft | 469 kts | 274° |
| 2026-05-04 17:22 | 20.44296 | 45.96901 | 35849 ft | 469 kts | 273° |
| 2026-05-04 17:23 | 20.45444 | 45.83072 | 35858 ft | 469 kts | 273° |
| 2026-05-04 17:24 | 20.46299 | 45.72677 | 35852 ft | 468 kts | 273° |
| 2026-05-04 17:25 | 20.47434 | 45.58778 | 35859 ft | 468 kts | 273° |
| 2026-05-04 17:26 | 20.48551 | 45.44953 | 35871 ft | 468 kts | 273° |
| 2026-05-04 17:27 | 20.49932 | 45.27679 | 35885 ft | 467 kts | 273° |
| 2026-05-04 17:28 | 20.49285 | 45.13959 | 35889 ft | 464 kts | 257° |
| 2026-05-04 17:29 | 20.45213 | 44.93688 | 35879 ft | 465 kts | 257° |
| 2026-05-04 17:31 | 20.42096 | 44.77954 | 35878 ft | 465 kts | 257° |
| 2026-05-04 17:32 | 20.38729 | 44.61050 | 35889 ft | 465 kts | 257° |
| 2026-05-04 17:33 | 20.36029 | 44.47563 | 35896 ft | 465 kts | 257° |
| 2026-05-04 17:34 | 20.33307 | 44.34021 | 35909 ft | 465 kts | 257° |
| 2026-05-04 17:35 | 20.29911 | 44.17203 | 35914 ft | 465 kts | 257° |
| 2026-05-04 17:36 | 20.28538 | 44.10429 | 35913 ft | 464 kts | 257° |
| 2026-05-04 17:36 | 20.27179 | 44.03738 | 35919 ft | 464 kts | 257° |
| 2026-05-04 17:37 | 20.25804 | 43.96982 | 35921 ft | 464 kts | 257° |
| 2026-05-04 17:37 | 20.24442 | 43.90302 | 35918 ft | 464 kts | 257° |
| 2026-05-04 17:38 | 20.23066 | 43.83568 | 35922 ft | 464 kts | 257° |
| 2026-05-04 17:38 | 20.21694 | 43.76865 | 35930 ft | 464 kts | 257° |
| 2026-05-04 17:39 | 20.19618 | 43.66756 | 35938 ft | 465 kts | 257° |
| 2026-05-04 17:39 | 20.18230 | 43.60012 | 35943 ft | 465 kts | 257° |
| 2026-05-04 17:40 | 20.16845 | 43.53294 | 35948 ft | 465 kts | 257° |
| 2026-05-04 17:40 | 20.15457 | 43.46578 | 35954 ft | 465 kts | 257° |
| 2026-05-04 17:41 | 20.14058 | 43.39822 | 35956 ft | 465 kts | 257° |
| 2026-05-04 17:41 | 20.12663 | 43.33096 | 35964 ft | 465 kts | 257° |
| 2026-05-04 17:42 | 20.11264 | 43.26368 | 35976 ft | 465 kts | 257° |
| 2026-05-04 17:42 | 20.09864 | 43.19647 | 35981 ft | 465 kts | 257° |
| 2026-05-04 17:43 | 20.08461 | 43.12920 | 35992 ft | 465 kts | 257° |
| 2026-05-04 17:43 | 20.07065 | 43.06246 | 35996 ft | 464 kts | 257° |
| 2026-05-04 17:44 | 20.05664 | 42.99560 | 36003 ft | 463 kts | 257° |
| 2026-05-04 17:44 | 20.04260 | 42.92864 | 36013 ft | 464 kts | 257° |
| 2026-05-04 17:45 | 20.02849 | 42.86180 | 36013 ft | 464 kts | 257° |
| 2026-05-04 17:45 | 20.01414 | 42.79441 | 36023 ft | 464 kts | 257° |
| 2026-05-04 17:46 | 19.99997 | 42.72793 | 36016 ft | 464 kts | 257° |
| 2026-05-04 17:46 | 19.98647 | 42.66080 | 36018 ft | 464 kts | 262° |
| 2026-05-04 17:47 | 19.98334 | 42.59194 | 36033 ft | 464 kts | 271° |
| 2026-05-04 17:47 | 19.99027 | 42.52350 | 36032 ft | 465 kts | 277° |
| 2026-05-04 17:48 | 19.99933 | 42.45543 | 36026 ft | 464 kts | 277° |
| 2026-05-04 17:48 | 20.00810 | 42.38792 | 36034 ft | 464 kts | 276° |
| 2026-05-04 17:49 | 20.01674 | 42.31994 | 36049 ft | 463 kts | 276° |
| 2026-05-04 17:49 | 20.02528 | 42.25205 | 36069 ft | 463 kts | 276° |
| 2026-05-04 17:50 | 20.03381 | 42.18406 | 36066 ft | 463 kts | 276° |
| 2026-05-04 17:50 | 20.04233 | 42.11607 | 36087 ft | 462 kts | 276° |
| 2026-05-04 17:51 | 20.05076 | 42.04844 | 36088 ft | 462 kts | 276° |
| 2026-05-04 17:51 | 20.05920 | 41.98054 | 36105 ft | 462 kts | 276° |
| 2026-05-04 17:52 | 20.06762 | 41.91266 | 36098 ft | 461 kts | 276° |
| 2026-05-04 17:52 | 20.07599 | 41.84496 | 36125 ft | 461 kts | 276° |
| 2026-05-04 17:53 | 20.08431 | 41.77742 | 36141 ft | 461 kts | 276° |
| 2026-05-04 17:53 | 20.09261 | 41.70983 | 36146 ft | 461 kts | 276° |
| 2026-05-04 17:54 | 20.10091 | 41.64201 | 36169 ft | 460 kts | 276° |
| 2026-05-04 17:54 | 20.10915 | 41.57449 | 36155 ft | 461 kts | 276° |
| 2026-05-04 17:55 | 20.11742 | 41.50643 | 36151 ft | 461 kts | 276° |
| 2026-05-04 17:55 | 20.12561 | 41.43885 | 36130 ft | 460 kts | 276° |
| 2026-05-04 17:56 | 20.13376 | 41.37147 | 36116 ft | 459 kts | 276° |
| 2026-05-04 17:56 | 20.14190 | 41.30380 | 36077 ft | 460 kts | 276° |
| 2026-05-04 17:57 | 20.15001 | 41.23622 | 36062 ft | 460 kts | 276° |
| 2026-05-04 17:57 | 20.15813 | 41.16834 | 36040 ft | 460 kts | 276° |
| 2026-05-04 17:58 | 20.16619 | 41.10082 | 36026 ft | 459 kts | 276° |
| 2026-05-04 17:58 | 20.17417 | 41.03373 | 36005 ft | 459 kts | 276° |
| 2026-05-04 17:59 | 20.18084 | 40.97741 | 35996 ft | 459 kts | 276° |
| 2026-05-04 18:00 | 20.19277 | 40.87620 | 35967 ft | 458 kts | 276° |
| 2026-05-04 18:00 | 20.20071 | 40.80880 | 35961 ft | 458 kts | 275° |
| 2026-05-04 18:01 | 20.20861 | 40.74140 | 35947 ft | 459 kts | 276° |
| 2026-05-04 18:01 | 20.22281 | 40.67556 | 35958 ft | 462 kts | 286° |
| 2026-05-04 18:02 | 20.26351 | 40.58193 | 35937 ft | 464 kts | 295° |
| 2026-05-04 18:02 | 20.29434 | 40.52139 | 35927 ft | 464 kts | 295° |
| 2026-05-04 18:03 | 20.32494 | 40.46053 | 35918 ft | 464 kts | 295° |
| 2026-05-04 18:03 | 20.35499 | 40.40037 | 35917 ft | 463 kts | 295° |
| 2026-05-04 18:04 | 20.38549 | 40.33924 | 35917 ft | 463 kts | 295° |
| 2026-05-04 18:05 | 20.43071 | 40.24854 | 35910 ft | 463 kts | 295° |
| 2026-05-04 18:05 | 20.46105 | 40.18766 | 35904 ft | 462 kts | 294° |
| 2026-05-04 18:06 | 20.50630 | 40.09670 | 35900 ft | 462 kts | 294° |
| 2026-05-04 18:06 | 20.53640 | 40.03612 | 35893 ft | 462 kts | 294° |
| 2026-05-04 18:07 | 20.56635 | 39.97574 | 35897 ft | 462 kts | 294° |
| 2026-05-04 18:07 | 20.59632 | 39.91527 | 35889 ft | 462 kts | 294° |
| 2026-05-04 18:08 | 20.62655 | 39.85421 | 35885 ft | 462 kts | 294° |
| 2026-05-04 18:08 | 20.65655 | 39.79355 | 35884 ft | 461 kts | 294° |
| 2026-05-04 18:09 | 20.71629 | 39.67254 | 35875 ft | 461 kts | 294° |
| 2026-05-04 18:10 | 20.74624 | 39.61176 | 35871 ft | 461 kts | 294° |
| 2026-05-04 18:10 | 20.78008 | 39.55333 | 35862 ft | 469 kts | 309° |
| 2026-05-04 18:11 | 20.83237 | 39.51067 | 35866 ft | 482 kts | 329° |
| 2026-05-04 18:11 | 20.89509 | 39.48350 | 35877 ft | 486 kts | 333° |
| 2026-05-04 18:12 | 20.95787 | 39.45676 | 35878 ft | 486 kts | 333° |
| 2026-05-04 18:12 | 21.02056 | 39.42942 | 35886 ft | 485 kts | 332° |
| 2026-05-04 18:13 | 21.08350 | 39.40165 | 35881 ft | 485 kts | 332° |
| 2026-05-04 18:14 | 21.17663 | 39.36048 | 35881 ft | 484 kts | 332° |
| 2026-05-04 18:14 | 21.23936 | 39.33275 | 35879 ft | 484 kts | 332° |
| 2026-05-04 18:15 | 21.36397 | 39.27760 | 35860 ft | 485 kts | 332° |
| 2026-05-04 18:16 | 21.42641 | 39.24993 | 35847 ft | 484 kts | 331° |
| 2026-05-04 18:16 | 21.48812 | 39.22255 | 35831 ft | 484 kts | 331° |
| 2026-05-04 18:17 | 21.58193 | 39.18089 | 35836 ft | 485 kts | 331° |
| 2026-05-04 18:18 | 21.67536 | 39.13928 | 35824 ft | 485 kts | 330° |
| 2026-05-04 18:18 | 21.73399 | 39.10466 | 35838 ft | 474 kts | 319° |
| 2026-05-04 18:19 | 21.81119 | 39.03894 | 35823 ft | 471 kts | 315° |
| 2026-05-04 18:19 | 21.86234 | 38.99509 | 35825 ft | 471 kts | 315° |
| 2026-05-04 18:20 | 21.91384 | 38.95116 | 35831 ft | 470 kts | 315° |
| 2026-05-04 18:20 | 21.96551 | 38.90710 | 35831 ft | 470 kts | 315° |
| 2026-05-04 18:21 | 22.01669 | 38.86339 | 35832 ft | 470 kts | 315° |
| 2026-05-04 18:21 | 22.06792 | 38.81958 | 35831 ft | 470 kts | 315° |
| 2026-05-04 18:22 | 22.11877 | 38.77607 | 35834 ft | 469 kts | 315° |
| 2026-05-04 18:22 | 22.16965 | 38.73248 | 35834 ft | 469 kts | 314° |
| 2026-05-04 18:23 | 22.22120 | 38.68828 | 35833 ft | 468 kts | 314° |
| 2026-05-04 18:23 | 22.27223 | 38.64447 | 35836 ft | 468 kts | 314° |
| 2026-05-04 18:24 | 22.32324 | 38.60064 | 35837 ft | 468 kts | 314° |
| 2026-05-04 18:24 | 22.37360 | 38.55733 | 35835 ft | 468 kts | 314° |
| 2026-05-04 18:25 | 22.42502 | 38.51307 | 35842 ft | 467 kts | 314° |
| 2026-05-04 18:25 | 22.47551 | 38.46956 | 35847 ft | 466 kts | 314° |
| 2026-05-04 18:26 | 22.52619 | 38.42585 | 35845 ft | 466 kts | 314° |
| 2026-05-04 18:26 | 22.56847 | 38.38935 | 35851 ft | 465 kts | 314° |
| 2026-05-04 18:27 | 22.62743 | 38.33837 | 35851 ft | 464 kts | 314° |
| 2026-05-04 18:27 | 22.66926 | 38.30217 | 35852 ft | 464 kts | 314° |
| 2026-05-04 18:28 | 22.71996 | 38.25825 | 35856 ft | 463 kts | 313° |
| 2026-05-04 18:28 | 22.77025 | 38.21464 | 35860 ft | 463 kts | 313° |
| 2026-05-04 18:29 | 22.82067 | 38.17087 | 35864 ft | 463 kts | 313° |
| 2026-05-04 18:29 | 22.87091 | 38.12721 | 35867 ft | 463 kts | 313° |
| 2026-05-04 18:30 | 22.94628 | 38.06165 | 35872 ft | 462 kts | 313° |
| 2026-05-04 18:31 | 22.99640 | 38.01799 | 35875 ft | 463 kts | 313° |
| 2026-05-04 18:31 | 23.04644 | 37.97436 | 35879 ft | 463 kts | 313° |
| 2026-05-04 18:32 | 23.09693 | 37.93029 | 35874 ft | 463 kts | 313° |
| 2026-05-04 18:32 | 23.14722 | 37.88637 | 35879 ft | 463 kts | 313° |
| 2026-05-04 18:33 | 23.19744 | 37.84245 | 35881 ft | 464 kts | 313° |
| 2026-05-04 18:33 | 23.24776 | 37.79840 | 35880 ft | 464 kts | 313° |
| 2026-05-04 18:34 | 23.29810 | 37.75428 | 35883 ft | 464 kts | 313° |
| 2026-05-04 18:34 | 23.34830 | 37.71026 | 35882 ft | 463 kts | 313° |
| 2026-05-04 18:35 | 23.39860 | 37.66610 | 35884 ft | 463 kts | 313° |
| 2026-05-04 18:35 | 23.44868 | 37.62207 | 35890 ft | 463 kts | 312° |
| 2026-05-04 18:36 | 23.49881 | 37.57795 | 35882 ft | 463 kts | 312° |
| 2026-05-04 18:36 | 23.54894 | 37.53377 | 35881 ft | 463 kts | 312° |
| 2026-05-04 18:37 | 23.59904 | 37.48958 | 35892 ft | 463 kts | 312° |
| 2026-05-04 18:37 | 23.64955 | 37.44499 | 35900 ft | 464 kts | 312° |
| 2026-05-04 18:38 | 23.69941 | 37.40091 | 35894 ft | 464 kts | 312° |
| 2026-05-04 18:38 | 23.74950 | 37.35660 | 35896 ft | 464 kts | 312° |
| 2026-05-04 18:39 | 23.79985 | 37.31201 | 35905 ft | 464 kts | 312° |
| 2026-05-04 18:39 | 23.84985 | 37.26769 | 35909 ft | 463 kts | 312° |
| 2026-05-04 18:40 | 23.89999 | 37.22319 | 35911 ft | 463 kts | 312° |
| 2026-05-04 18:40 | 23.95001 | 37.17874 | 35917 ft | 464 kts | 312° |
| 2026-05-04 18:41 | 24.00000 | 37.13429 | 35914 ft | 463 kts | 311° |
| 2026-05-04 18:41 | 24.04986 | 37.08991 | 35920 ft | 463 kts | 311° |
| 2026-05-04 18:42 | 24.10011 | 37.04513 | 35925 ft | 463 kts | 311° |
| 2026-05-04 18:42 | 24.15029 | 37.00036 | 35925 ft | 462 kts | 311° |
| 2026-05-04 18:43 | 24.19991 | 36.95606 | 35931 ft | 462 kts | 311° |
| 2026-05-04 18:43 | 24.24961 | 36.91164 | 35923 ft | 461 kts | 311° |
| 2026-05-04 18:44 | 24.29947 | 36.86701 | 35931 ft | 461 kts | 311° |
| 2026-05-04 18:44 | 24.34927 | 36.82239 | 35939 ft | 461 kts | 311° |
| 2026-05-04 18:45 | 24.39886 | 36.77792 | 35943 ft | 461 kts | 311° |
| 2026-05-04 18:45 | 24.44851 | 36.73334 | 35951 ft | 461 kts | 311° |
| 2026-05-04 18:46 | 24.49828 | 36.68862 | 35949 ft | 460 kts | 311° |
| 2026-05-04 18:46 | 24.54745 | 36.64438 | 35956 ft | 459 kts | 311° |
| 2026-05-04 18:47 | 24.59560 | 36.59850 | 35935 ft | 448 kts | 303° |
| 2026-05-04 18:47 | 24.61439 | 36.57155 | 35958 ft | 437 kts | 295° |
| 2026-05-04 18:47 | 24.62965 | 36.54301 | 35958 ft | 433 kts | 290° |
| 2026-05-04 18:48 | 24.65083 | 36.48184 | 35955 ft | 428 kts | 282° |
| 2026-05-04 18:48 | 24.66974 | 36.41947 | 35954 ft | 430 kts | 282° |
| 2026-05-04 18:49 | 24.68890 | 36.35722 | 35953 ft | 428 kts | 283° |
| 2026-05-04 18:49 | 24.70807 | 36.29519 | 35959 ft | 428 kts | 283° |
| 2026-05-04 18:50 | 24.72717 | 36.23338 | 35963 ft | 428 kts | 283° |
| 2026-05-04 18:50 | 24.74640 | 36.17103 | 35962 ft | 429 kts | 283° |
| 2026-05-04 18:51 | 24.76564 | 36.10855 | 35964 ft | 430 kts | 283° |
| 2026-05-04 18:51 | 24.78467 | 36.04665 | 35961 ft | 430 kts | 283° |
| 2026-05-04 18:52 | 24.80393 | 35.98389 | 35966 ft | 431 kts | 283° |
| 2026-05-04 18:52 | 24.82312 | 35.92127 | 35969 ft | 431 kts | 283° |
| 2026-05-04 18:53 | 24.84208 | 35.85929 | 35970 ft | 431 kts | 283° |
| 2026-05-04 18:53 | 24.86125 | 35.79654 | 35975 ft | 431 kts | 283° |
| 2026-05-04 18:54 | 24.88031 | 35.73401 | 35976 ft | 430 kts | 283° |
| 2026-05-04 18:54 | 24.89937 | 35.67139 | 35976 ft | 430 kts | 283° |
| 2026-05-04 18:55 | 24.91842 | 35.60870 | 35978 ft | 430 kts | 283° |
| 2026-05-04 18:55 | 24.94676 | 35.51522 | 35982 ft | 430 kts | 283° |
| 2026-05-04 18:56 | 24.96263 | 35.46279 | 35983 ft | 429 kts | 283° |
| 2026-05-04 18:56 | 24.98148 | 35.40043 | 35990 ft | 428 kts | 283° |
| 2026-05-04 18:57 | 25.00027 | 35.33810 | 35988 ft | 429 kts | 283° |
| 2026-05-04 18:57 | 25.01905 | 35.27573 | 35991 ft | 429 kts | 283° |
| 2026-05-04 18:58 | 25.03783 | 35.21327 | 35987 ft | 428 kts | 283° |
| 2026-05-04 18:58 | 25.05651 | 35.15103 | 35995 ft | 428 kts | 283° |
| 2026-05-04 18:59 | 25.07522 | 35.08869 | 35993 ft | 427 kts | 283° |
| 2026-05-04 18:59 | 25.09392 | 35.02645 | 35997 ft | 428 kts | 283° |
| 2026-05-04 19:00 | 25.11257 | 34.96428 | 35996 ft | 428 kts | 283° |
| 2026-05-04 19:00 | 25.13127 | 34.90179 | 35993 ft | 428 kts | 283° |
| 2026-05-04 19:01 | 25.14995 | 34.83925 | 35992 ft | 427 kts | 283° |
| 2026-05-04 19:01 | 25.16852 | 34.77699 | 35987 ft | 427 kts | 283° |
| 2026-05-04 19:02 | 25.18711 | 34.71454 | 35990 ft | 427 kts | 283° |
| 2026-05-04 19:02 | 25.20561 | 34.65229 | 35989 ft | 427 kts | 282° |
| 2026-05-04 19:03 | 25.22425 | 34.58947 | 35973 ft | 426 kts | 283° |
| 2026-05-04 19:03 | 25.24279 | 34.52687 | 35987 ft | 426 kts | 282° |
| 2026-05-04 19:04 | 25.26111 | 34.46488 | 35991 ft | 426 kts | 282° |
| 2026-05-04 19:04 | 25.27946 | 34.40270 | 35967 ft | 427 kts | 282° |
| 2026-05-04 19:05 | 25.29797 | 34.33988 | 35967 ft | 426 kts | 282° |
| 2026-05-04 19:05 | 25.31614 | 34.27812 | 35975 ft | 426 kts | 282° |
| 2026-05-04 19:06 | 25.33451 | 34.21556 | 35965 ft | 426 kts | 282° |
| 2026-05-04 19:06 | 25.35285 | 34.15297 | 35973 ft | 425 kts | 282° |
| 2026-05-04 19:07 | 25.37091 | 34.09122 | 35974 ft | 426 kts | 282° |
| 2026-05-04 19:07 | 25.38917 | 34.02870 | 35970 ft | 426 kts | 282° |
| 2026-05-04 19:08 | 25.40736 | 33.96633 | 35976 ft | 425 kts | 282° |
| 2026-05-04 19:08 | 25.42560 | 33.90367 | 35971 ft | 425 kts | 282° |
| 2026-05-04 19:09 | 25.44353 | 33.84177 | 35973 ft | 425 kts | 282° |
| 2026-05-04 19:09 | 25.46152 | 33.77943 | 35972 ft | 425 kts | 282° |
| 2026-05-04 19:10 | 25.47967 | 33.71649 | 35970 ft | 426 kts | 282° |
| 2026-05-04 19:10 | 25.49762 | 33.65415 | 35969 ft | 425 kts | 282° |
| 2026-05-04 19:11 | 25.51549 | 33.59195 | 35978 ft | 426 kts | 282° |
| 2026-05-04 19:11 | 25.53345 | 33.52935 | 35973 ft | 426 kts | 282° |
| 2026-05-04 19:12 | 25.56042 | 33.43512 | 35975 ft | 426 kts | 282° |
| 2026-05-04 19:13 | 25.57816 | 33.37299 | 35972 ft | 426 kts | 282° |
| 2026-05-04 19:13 | 25.59612 | 33.30999 | 35975 ft | 426 kts | 282° |
| 2026-05-04 19:14 | 25.61392 | 33.24745 | 35975 ft | 426 kts | 282° |
| 2026-05-04 19:14 | 25.63172 | 33.18478 | 35977 ft | 426 kts | 282° |
| 2026-05-04 19:15 | 25.64951 | 33.12206 | 35985 ft | 426 kts | 282° |
| 2026-05-04 19:15 | 25.66705 | 33.06005 | 35983 ft | 426 kts | 282° |
| 2026-05-04 19:16 | 25.68492 | 32.99679 | 35994 ft | 426 kts | 282° |
| 2026-05-04 19:16 | 25.70255 | 32.93428 | 35996 ft | 426 kts | 282° |
| 2026-05-04 19:17 | 25.72027 | 32.87136 | 36006 ft | 426 kts | 282° |
| 2026-05-04 19:17 | 25.73853 | 32.80944 | 36015 ft | 429 kts | 287° |
| 2026-05-04 19:18 | 25.76686 | 32.74990 | 36024 ft | 436 kts | 295° |
| 2026-05-04 19:18 | 25.80306 | 32.69573 | 36023 ft | 441 kts | 302° |
| 2026-05-04 19:19 | 25.84380 | 32.64454 | 36015 ft | 447 kts | 308° |
| 2026-05-04 19:19 | 25.89137 | 32.59885 | 36015 ft | 451 kts | 310° |
| 2026-05-04 19:20 | 25.93136 | 32.56041 | 36013 ft | 450 kts | 310° |
| 2026-05-04 19:20 | 25.97861 | 32.51456 | 36009 ft | 449 kts | 310° |
| 2026-05-04 19:21 | 26.02565 | 32.46875 | 36002 ft | 449 kts | 310° |
| 2026-05-04 19:21 | 26.07267 | 32.42288 | 36011 ft | 448 kts | 310° |
| 2026-05-04 19:22 | 26.11923 | 32.37741 | 36014 ft | 449 kts | 310° |
| 2026-05-04 19:22 | 26.16664 | 32.33108 | 36017 ft | 449 kts | 310° |
| 2026-05-04 19:23 | 26.21328 | 32.28546 | 36022 ft | 449 kts | 310° |
| 2026-05-04 19:23 | 26.26033 | 32.23939 | 36025 ft | 449 kts | 310° |
| 2026-05-04 19:24 | 26.30734 | 32.19331 | 36033 ft | 449 kts | 310° |
| 2026-05-04 19:24 | 26.35407 | 32.14744 | 36032 ft | 448 kts | 310° |
| 2026-05-04 19:25 | 26.40099 | 32.10134 | 36029 ft | 449 kts | 310° |
| 2026-05-04 19:25 | 26.44822 | 32.05488 | 36034 ft | 448 kts | 310° |
| 2026-05-04 19:26 | 26.49534 | 32.00847 | 36038 ft | 448 kts | 310° |
| 2026-05-04 19:26 | 26.54208 | 31.96238 | 36046 ft | 448 kts | 310° |
| 2026-05-04 19:27 | 26.58875 | 31.91631 | 36052 ft | 448 kts | 310° |